Data for 09/12/2006

Time Sea-Level Adjusted Pressure Absolute Pressure Temperature Relative Humidity Dew Point   
(mb) (inHg) (mb) (inHg) (C) (F) (%) (C) (F)
00:05 1023 30.21 853 25.19 15.4 59.7 17 -9.4 15.2
00:10 1023 30.21 853 25.19 16.1 61 16 -9.6 14.8
00:15 1023 30.21 853 25.19 16.4 61.5 23 -4.5 24
00:20 1023 30.21 853 25.19 15.5 59.8 21 -6.6 20.1
00:25 1023 30.21 853 25.19 15.3 59.5 17 -9.6 14.8
00:30 1023 30.21 853 25.19 15.9 60.6 21 -6.5 20.3
00:35 1023 30.21 853 25.19 15.8 60.4 19 -7.7 18.1
00:40 1023 30.21 853 25.19 15.2 59.3 24 -5.1 22.9
00:45 1023 30.21 853 25.19 14.1 57.4 25 -5.4 22.3
00:50 1023 30.21 853 25.19 14.1 57.4 22 -7.2 19
00:55 1024 30.24 853 25.19 15.1 59.3 18 -9 15.8
01:00 1023 30.21 853 25.19 15.5 59.8 19 -7.8 18
01:05 1023 30.21 853 25.19 14.9 58.9 20 -7.6 18.3
01:10 1024 30.24 853 25.19 14.8 58.7 22 -6.6 20.1
01:15 1024 30.24 853 25.19 14.2 57.5 24 -6.1 20.9
01:20 1024 30.24 853 25.19 13.7 56.6 23 -6.9 19.6
01:25 1024 30.24 853 25.19 13.6 56.6 24 -6.7 20
01:30 1024 30.24 853 25.19 13.3 55.9 24 -6.5 20.2
01:35 1024 30.24 853 25.19 13.2 55.7 25 -6.5 20.3
01:40 1024 30.24 853 25.19 13.1 55.6 25 -6.7 20
01:45 1024 30.24 853 25.19 13.2 55.8 24 -6.8 19.8
01:50 1024 30.24 853 25.19 13.4 56.1 24 -6.8 19.8
01:55 1024 30.24 853 25.19 13.5 56.3 24 -6.8 19.8
02:00 1024 30.24 853 25.19 13.6 56.4 22 -7.9 17.8
02:05 1024 30.24 853 25.19 13.8 56.8 23 -7 19.4
02:10 1024 30.24 853 25.19 13.4 56.1 25 -6.4 20.5
02:15 1024 30.24 853 25.19 12.9 55.1 25 -6.7 20
02:20 1024 30.24 853 25.19 13.3 55.9 22 -8.2 17.2
02:25 1024 30.24 853 25.19 13.4 56.2 24 -6.9 19.5
02:30 1024 30.24 853 25.19 13.3 55.9 23 -7.5 18.5
02:35 1024 30.24 853 25.19 13.3 55.9 23 -7.4 18.6
02:40 1024 30.24 853 25.19 13.6 56.5 22 -7.5 18.4
02:45 1024 30.24 853 25.19 13.1 55.6 25 -6.4 20.4
02:50 1024 30.24 853 25.19 12.3 54.1 28 -5.7 21.7
02:55 1024 30.24 853 25.19 11.7 53 29 -5.8 21.5
03:00 1024 30.24 853 25.19 11.2 52.2 33 -4.3 24.2
03:05 1024 30.24 853 25.19 10.5 50.8 32 -5.7 21.8
03:10 1024 30.24 853 25.19 10.6 51.1 31 -5.6 21.9
03:15 1024 30.24 853 25.19 10.5 50.9 32 -5.6 21.9
03:20 1024 30.24 853 25.19 10.5 50.8 31 -6 21.3
03:25 1024 30.24 853 25.19 11.2 52.2 26 -7.5 18.5
03:30 1024 30.24 853 25.19 12.2 53.9 24 -7.8 18
03:35 1024 30.24 853 25.19 11.7 53.1 25 -7.7 18.1
03:40 1024 30.24 853 25.19 12 53.5 24 -7.8 18
03:45 1024 30.24 853 25.19 12.3 54.1 24 -7.8 17.9
03:50 1024 30.24 853 25.19 12.1 53.7 26 -7 19.3
03:55 1024 30.24 853 25.19 11.5 52.7 25 -7.8 17.9
04:00 1024 30.24 853 25.19 11.6 53 25 -7.5 18.5
04:05 1024 30.24 853 25.19 11.7 53.1 26 -7.3 18.9
04:10 1024 30.24 853 25.19 11.9 53.4 25 -7.4 18.7
04:15 1024 30.24 853 25.19 11.7 53 25 -7.5 18.5
04:20 1024 30.24 853 25.19 11.6 52.8 26 -7 19.3
04:25 1024 30.24 853 25.19 11.2 52.1 27 -7.4 18.8
04:30 1024 30.24 853 25.19 11.3 52.4 26 -7.6 18.3
04:35 1024 30.24 853 25.19 11.4 52.5 26 -7.3 18.9
04:40 1024 30.24 853 25.19 11.2 52.2 27 -6.9 19.5
04:45 1024 30.24 853 25.19 11.1 52 27 -7 19.4
04:50 1024 30.24 853 25.19 11.2 52.1 27 -7.2 19.1
04:55 1024 30.24 853 25.19 11.4 52.5 27 -7.1 19.2
05:00 1024 30.24 853 25.19 11.4 52.5 27 -7.1 19.2
05:05 1024 30.24 853 25.19 11.6 52.8 26 -7.1 19.2
05:10 1024 30.24 853 25.19 11.8 53.3 25 -7.6 18.4
05:15 1024 30.24 853 25.19 12.2 54 24 -7.7 18.1
05:20 1024 30.24 853 25.19 12.6 54.6 24 -7.7 18.1
05:25 1024 30.24 853 25.19 12.6 54.7 25 -7 19.4
05:30 1024 30.24 853 25.19 12.8 55 24 -7.3 18.9
05:35 1024 30.24 853 25.19 12.8 55 23 -7.6 18.3
05:40 1024 30.24 853 25.19 12.6 54.7 26 -6.6 20.2
05:45 1024 30.24 853 25.19 12.5 54.5 26 -6.6 20.1
05:50 1024 30.24 853 25.19 12.2 53.9 25 -7.3 18.8
05:55 1024 30.24 853 25.19 12.1 53.8 27 -6.4 20.6
06:00 1024 30.24 853 25.19 11.9 53.4 28 -5.9 21.4
06:05 1024 30.24 854 25.22 11.5 52.7 28 -6.3 20.6
06:10 1024 30.24 854 25.22 11.6 52.8 28 -6.3 20.7
06:15 1024 30.24 854 25.22 12.2 54 24 -7.7 18.1
06:20 1024 30.24 854 25.22 12.5 54.6 25 -7.1 19.3
06:25 1024 30.24 854 25.22 12.1 53.8 27 -6.4 20.5
06:30 1024 30.24 853 25.19 11.7 53.1 26 -7 19.5
06:35 1024 30.24 853 25.19 11.6 52.9 28 -6.2 20.9
06:40 1024 30.24 853 25.19 11.3 52.3 28 -6.8 19.8
06:45 1024 30.24 854 25.22 11.2 52.2 30 -5.7 21.8
06:50 1024 30.24 854 25.22 11 51.7 28 -6.8 19.7
06:55 1024 30.24 854 25.22 11.1 52 28 -6.7 19.9
07:00 1024 30.24 854 25.22 11.4 52.4 31 -5.3 22.5
07:05 1024 30.24 854 25.22 10.9 51.5 33 -4.9 23.1
07:10 1024 30.24 854 25.22 10.6 51 32 -5.2 22.6
07:15 1024 30.24 854 25.22 9.7 49.5 33 -5.8 21.6
07:20 1024 30.24 854 25.22 10 49.9 31 -6.3 20.7
07:25 1024 30.24 854 25.22 10.4 50.7 29 -6.7 19.9
07:30 1025 30.27 854 25.22 10.3 50.6 31 -5.8 21.5
07:35 1025 30.27 854 25.22 10.2 50.4 31 -6.3 20.7
07:40 1025 30.27 854 25.22 10.4 50.7 31 -6 21.2
07:45 1025 30.27 854 25.22 10.4 50.7 31 -6.2 20.9
07:50 1025 30.27 854 25.22 10.6 51 31 -5.7 21.7
07:55 1025 30.27 854 25.22 10.8 51.4 30 -5.9 21.4
08:00 1025 30.27 854 25.22 11.1 52 29 -6.1 21
08:05 1025 30.27 854 25.22 11.2 52.1 29 -6 21.2
08:10 1025 30.27 854 25.22 11.2 52.1 30 -5.8 21.5
08:15 1025 30.27 854 25.22 11.4 52.6 29 -5.8 21.6
08:20 1025 30.27 854 25.22 11.7 53.1 29 -5.7 21.8
08:25 1025 30.27 854 25.22 12.1 53.8 28 -5.8 21.6
08:30 1025 30.27 854 25.22 12.4 54.3 29 -5.1 22.7
08:35 1025 30.27 854 25.22 12.6 54.7 30 -4.5 23.9
08:40 1025 30.27 854 25.22 13 55.4 28 -4.9 23.2
08:45 1025 30.27 854 25.22 13.4 56 30 -3.8 25.1
08:50 1025 30.27 854 25.22 13.9 57 29 -4 24.8
08:55 1025 30.27 854 25.22 14.6 58.3 29 -3 26.5
09:00 1025 30.27 854 25.22 14.8 58.6 28 -3.3 26
09:05 1025 30.27 854 25.22 14.9 58.9 25 -5 23
09:10 1025 30.27 854 25.22 15.2 59.3 26 -4.2 24.4
09:15 1025 30.27 854 25.22 15.5 59.8 25 -4.6 23.7
09:20 1025 30.27 854 25.22 15.7 60.2 25 -4.3 24.3
09:25 1025 30.27 854 25.22 16.3 61.3 25 -3.9 25.1
09:30 1025 30.27 854 25.22 16.7 62.1 25 -3.4 25.8
09:35 1025 30.27 854 25.22 17.2 63 23 -3.9 25.1
09:40 1025 30.27 854 25.22 17.5 63.5 23 -3.7 25.4
09:45 1025 30.27 854 25.22 17.7 63.9 22 -4.4 24
09:50 1025 30.27 854 25.22 17.7 63.8 22 -3.9 25
09:55 1025 30.27 854 25.22 18 64.3 20 -5 23.1
10:00 1025 30.27 854 25.22 18.9 66 21 -3.9 25
10:05 1025 30.27 854 25.22 18.6 65.5 22 -3.7 25.3
10:10 1025 30.27 854 25.22 18.6 65.5 21 -3.7 25.3
10:15 1025 30.27 854 25.22 18.9 66 21 -4.1 24.6
10:20 1025 30.27 854 25.22 18.9 65.9 22 -3.3 26
10:25 1025 30.27 854 25.22 19 66.2 21 -3.7 25.4
10:30 1025 30.27 854 25.22 19.4 66.9 22 -3 26.6
10:35 1025 30.27 854 25.22 20.2 68.4 18 -5 23.1
10:40 1025 30.27 854 25.22 19.6 67.4 20 -4 24.8
10:45 1025 30.27 854 25.22 20.2 68.4 20 -3.4 25.9
10:50 1025 30.27 854 25.22 20.7 69.2 19 -3.4 25.9
10:55 1025 30.27 854 25.22 20.7 69.2 19 -3.9 25
11:00 1025 30.27 854 25.22 20.5 68.8 19 -4 24.9
11:05 1025 30.27 854 25.22 20.7 69.2 19 -3.5 25.7
11:10 1025 30.27 854 25.22 20.8 69.4 19 -3.4 25.9
11:15 1025 30.27 854 25.22 21.1 70 18 -4.2 24.5
11:20 1024 30.24 854 25.22 21.3 70.3 18 -4 24.9
11:25 1024 30.24 854 25.22 22.1 71.7 16 -4.7 23.5
11:30 1024 30.24 854 25.22 22.2 72 18 -3.2 26.2
11:35 1024 30.24 853 25.19 22.7 72.9 16 -4.4 24.1
11:40 1024 30.24 853 25.19 22.3 72.1 18 -2.8 26.9
11:45 1024 30.24 853 25.19 22.5 72.5 16 -4.7 23.5
11:50 1024 30.24 853 25.19 22.5 72.5 17 -3.8 25.2
11:55 1024 30.24 853 25.19 23.1 73.6 15 -4.7 23.5
12:00 1024 30.24 853 25.19 23.6 74.4 14 -5 23
12:05 1024 30.24 853 25.19 23.2 73.7 15 -4.8 23.4
12:10 1024 30.24 853 25.19 23.3 73.9 15 -4.4 24.1
12:15 1024 30.24 853 25.19 23.5 74.3 14 -5.3 22.4
12:20 1024 30.24 853 25.19 24.1 75.4 14 -5 22.9
12:25 1024 30.24 853 25.19 24.2 75.5 14 -5 23
12:30 1024 30.24 853 25.19 25.3 77.5 13 -5.1 22.8
12:35 1024 30.24 853 25.19 24.9 76.9 13 -4.7 23.5
12:40 1024 30.24 853 25.19 25.3 77.5 13 -4.9 23.1
12:45 1024 30.24 853 25.19 24.9 76.9 13 -4.8 23.4
12:50 1024 30.24 853 25.19 25.8 78.5 13 -4.2 24.4
12:55 1024 30.24 853 25.19 26.2 79.1 14 -3.5 25.7
13:00 1024 30.24 853 25.19 26.1 78.9 13 -4.1 24.7
13:05 1023 30.21 853 25.19 25.9 78.7 13 -4.3 24.3
13:10 1023 30.21 853 25.19 26.3 79.3 13 -3.8 25.1
13:15 1023 30.21 852 25.16 26.3 79.3 13 -4.6 23.8
13:20 1023 30.21 852 25.16 26.5 79.7 12 -4.4 24
13:25 1023 30.21 852 25.16 26.8 80.2 13 -3.7 25.3
13:30 1023 30.21 852 25.16 27 80.7 13 -3.8 25.1
13:35 1023 30.21 852 25.16 27 80.5 13 -4 24.7
13:40 1023 30.21 852 25.16 27.3 81.2 13 -3.3 26
13:45 1023 30.21 852 25.16 26.9 80.3 12 -4.1 24.5
13:50 1023 30.21 852 25.16 25.8 78.4 13 -4.5 24
13:55 1023 30.21 852 25.16 26.5 79.6 13 -4.1 24.6
14:00 1023 30.21 852 25.16 27 80.7 13 -3.6 25.5
14:05 1023 30.21 852 25.16 27.1 80.8 13 -3.3 26.1
14:10 1023 30.21 852 25.16 27 80.6 12 -4 24.7
14:15 1023 30.21 852 25.16 27.5 81.4 13 -3.4 25.9
14:20 1023 30.21 852 25.16 27 80.7 13 -3.9 24.9
14:25 1022 30.18 852 25.16 26.6 79.9 13 -4.1 24.6
14:30 1022 30.18 852 25.16 27.3 81.1 12 -4.2 24.4
14:35 1022 30.18 852 25.16 27.8 82.1 12 -3.6 25.5
14:40 1022 30.18 852 25.16 27.3 81.1 13 -3.3 26.1
14:45 1022 30.18 851 25.13 27 80.6 13 -3.9 25
14:50 1022 30.18 851 25.13 27.8 82.1 13 -3.3 26.1
14:55 1022 30.18 851 25.13 28.1 82.5 12 -3.3 26
15:00 1022 30.18 851 25.13 27.9 82.1 13 -3 26.6
15:05 1022 30.18 851 25.13 27.9 82.2 12 -3.8 25.1
15:10 1022 30.18 851 25.13 28.1 82.5 12 -3.2 26.2
15:15 1022 30.18 851 25.13 28.4 83.2 12 -3.5 25.7
15:20 1022 30.18 851 25.13 28.1 82.6 13 -3.1 26.5
15:25 1022 30.18 851 25.13 28.1 82.6 12 -3.1 26.3
15:30 1022 30.18 851 25.13 28.5 83.3 12 -3.3 26
15:35 1022 30.18 851 25.13 28.2 82.8 12 -3.6 25.5
15:40 1021 30.15 851 25.13 27.8 82 12 -3.7 25.3
15:45 1021 30.15 850 25.1 27.8 82.1 12 -3.8 25.2
15:50 1021 30.15 850 25.1 27.9 82.1 12 -3.8 25.1
15:55 1021 30.15 850 25.1 27.5 81.5 12 -3.8 25.2
16:00 1021 30.15 850 25.1 28.1 82.6 12 -3.8 25.2
16:05 1021 30.15 850 25.1 28.3 82.9 12 -3.8 25.2
16:10 1021 30.15 850 25.1 28 82.3 12 -4.3 24.2
16:15 1021 30.15 850 25.1 28 82.4 12 -3.9 25.1
16:20 1021 30.15 850 25.1 28.2 82.7 12 -3.4 25.9
16:25 1021 30.15 850 25.1 28.3 82.9 12 -3.5 25.7
16:30 1021 30.15 850 25.1 28.7 83.6 12 -2.7 27.1
16:35 1021 30.15 850 25.1 28.4 83 12 -3.1 26.4
16:40 1021 30.15 850 25.1 28.3 83 13 -2.2 28
16:45 1020 30.12 850 25.1 28.4 83.2 13 -2.8 26.9
16:50 1020 30.12 850 25.1 28.6 83.4 12 -3.7 25.3
16:55 1020 30.12 850 25.1 28 82.5 12 -3.6 25.5
17:00 1020 30.12 850 25.1 27.6 81.7 13 -3.1 26.4
17:05 1020 30.12 850 25.1 28.2 82.7 12 -4 24.8
17:10 1020 30.12 850 25.1 28.1 82.6 13 -2.9 26.8
17:15 1020 30.12 849 25.07 28.4 83.2 12 -3.2 26.3
17:20 1020 30.12 849 25.07 28.6 83.5 12 -3.4 25.9
17:25 1020 30.12 849 25.07 28.1 82.6 13 -3 26.6
17:30 1020 30.12 849 25.07 27.6 81.7 12 -3.5 25.6
17:35 1020 30.12 849 25.07 27.5 81.5 12 -3.7 25.4
17:40 1020 30.12 849 25.07 27.7 81.9 12 -4 24.8
17:45 1020 30.12 849 25.07 27.3 81.1 12 -3.9 25
17:50 1020 30.12 849 25.07 27.6 81.6 12 -3.9 25
17:55 1020 30.12 849 25.07 27.8 82 12 -4.1 24.6
18:00 1020 30.12 849 25.07 27.6 81.7 13 -3.4 25.9
18:05 1020 30.12 849 25.07 27.4 81.3 12 -4 24.8
18:10 1020 30.12 849 25.07 27 80.6 13 -3.9 24.9
18:15 1020 30.12 849 25.07 27.1 80.9 13 -3.2 26.2
18:20 1020 30.12 849 25.07 27.1 80.7 13 -3.5 25.8
18:25 1020 30.12 849 25.07 26.7 80.1 13 -4.2 24.5
18:30 1020 30.12 849 25.07 26.7 80.1 12 -4.3 24.2
18:35 1020 30.12 849 25.07 26.7 80 13 -3.6 25.5
18:40 1020 30.12 849 25.07 26.7 80 13 -3.8 25.1
18:45 1020 30.12 849 25.07 26.6 79.8 13 -3.4 26
18:50 1019 30.09 849 25.07 26.5 79.6 13 -3.9 24.9
18:55 1019 30.09 849 25.07 26.4 79.4 13 -3.9 25
19:00 1019 30.09 849 25.07 26.3 79.3 16 -1.5 29.2
19:05 1019 30.09 849 25.07 26.2 79.2 13 -3.9 24.9
19:10 1019 30.09 849 25.07 26.1 78.9 17 -0.3 31.4
19:15 1019 30.09 849 25.07 25.9 78.6 21 2.4 36.3
19:20 1019 30.09 848 25.04 24.9 76.9 23 2.6 36.7
19:25 1019 30.09 848 25.04 23.7 74.6 23 1.3 34.3
19:30 1019 30.09 848 25.04 23.3 73.9 24 1.8 35.2
19:35 1019 30.09 848 25.04 22.8 73 26 2.5 36.5
19:40 1019 30.09 848 25.04 22.2 72 26 2 35.6
19:45 1019 30.09 848 25.04 21.7 71.1 25 1.1 34
19:50 1019 30.09 848 25.04 21.2 70.2 25 0.6 33
19:55 1019 30.09 848 25.04 20.8 69.5 26 0.9 33.6
20:00 1019 30.09 848 25.04 20.6 69.1 23 -0.9 30.4
20:05 1019 30.09 848 25.04 20.4 68.7 27 0.9 33.7
20:10 1019 30.09 848 25.04 20.1 68.3 29 1.6 34.9
20:15 1019 30.09 848 25.04 19.9 67.7 25 -0.6 30.9
20:20 1019 30.09 848 25.04 19.2 66.6 28 0.4 32.8
20:25 1019 30.09 848 25.04 18.7 65.6 27 -0.4 31.3
20:30 1019 30.09 848 25.04 18.6 65.4 26 -1.2 29.9
20:35 1019 30.09 848 25.04 18.6 65.5 25 -1.8 28.8
20:40 1019 30.09 848 25.04 19 66.1 21 -3.5 25.8
20:45 1019 30.09 848 25.04 19 66.2 23 -2.2 28
20:50 1019 30.09 848 25.04 18.6 65.4 24 -2.3 27.9
20:55 1019 30.09 848 25.04 18.6 65.5 23 -2.8 27
21:00 1019 30.09 848 25.04 18.9 65.9 23 -2.8 27
21:05 1019 30.09 848 25.04 19 66.1 24 -1.7 29
21:10 1019 30.09 848 25.04 18.9 66.1 22 -3 26.6
21:15 1019 30.09 848 25.04 18.8 65.8 22 -3.1 26.4
21:20 1019 30.09 848 25.04 18.8 65.8 22 -3.3 26.1
21:25 1019 30.09 848 25.04 18.8 65.9 22 -3.3 26.1
21:30 1019 30.09 848 25.04 18.6 65.6 22 -3.2 26.3
21:35 1019 30.09 848 25.04 18.6 65.4 22 -3.4 26
21:40 1019 30.09 848 25.04 18.5 65.4 22 -3.4 25.8
21:45 1019 30.09 848 25.04 18.4 65.2 23 -3.2 26.2
21:50 1019 30.09 848 25.04 18.2 64.8 23 -3.3 26.1
21:55 1019 30.09 848 25.04 18.1 64.6 23 -3.2 26.2
22:00 1019 30.09 848 25.04 18 64.3 23 -3.4 25.9
22:05 1019 30.09 848 25.04 17.8 64 23 -3.3 26.1
22:10 1019 30.09 848 25.04 17.7 63.8 25 -2.5 27.4
22:15 1019 30.09 848 25.04 17.8 64 23 -3.4 25.9
22:20 1019 30.09 849 25.07 17.9 64.3 23 -3.6 25.6
22:25 1020 30.12 849 25.07 17.6 63.7 24 -3 26.6
22:30 1020 30.12 849 25.07 17.3 63.2 25 -2.5 27.5
22:35 1020 30.12 849 25.07 17.3 63.1 26 -2.1 28.2
22:40 1020 30.12 849 25.07 17.2 63 27 -1.8 28.7
22:45 1020 30.12 849 25.07 17.3 63.2 26 -2.1 28.3
22:50 1019 30.09 849 25.07 17.1 62.7 28 -1.2 29.8
22:55 1019 30.09 849 25.07 16.9 62.4 27 -1.9 28.5
23:00 1019 30.09 849 25.07 16 60.8 30 -1.3 29.6
23:05 1019 30.09 849 25.07 15.8 60.5 29 -2 28.4
23:10 1019 30.09 849 25.07 16.2 61.2 28 -2.2 28.1
23:15 1019 30.09 849 25.07 16.8 62.3 26 -2.8 26.9
23:20 1019 30.09 849 25.07 16.6 61.9 29 -1.2 29.8
23:25 1019 30.09 849 25.07 16.2 61.2 28 -2.1 28.3
23:30 1019 30.09 849 25.07 15.5 59.9 30 -1.8 28.8
23:35 1019 30.09 848 25.04 15 59.1 31 -2 28.4
23:40 1019 30.09 848 25.04 14.8 58.7 31 -2.2 28
23:45 1019 30.09 848 25.04 14.6 58.3 32 -2 28.5
23:50 1019 30.09 848 25.04 14.5 58 29 -3.1 26.4
23:55 1019 30.09 848 25.04 15.6 60.1 27 -3.4 25.9
24:00 1019 30.09 848 25.04 16.2 61.2 25 -3.6 25.6